createdAt,value
2019-04-20T00:01:03.273Z,51.72
2019-04-20T00:03:39.846Z,51.26
2019-04-20T00:06:09.188Z,51.13
2019-04-20T00:08:42.717Z,51.15
2019-04-20T00:11:21.888Z,51.56
2019-04-20T00:13:57.745Z,51.75
2019-04-20T00:16:21.170Z,52.18
2019-04-20T00:18:56.575Z,52.00
2019-04-20T00:21:46.919Z,51.98
2019-04-20T00:24:21.019Z,51.96
2019-04-20T00:29:40.705Z,52.53
2019-04-20T00:32:06.335Z,52.72
2019-04-20T00:34:32.002Z,52.68
2019-04-20T00:37:00.613Z,52.92
2019-04-20T00:39:32.271Z,53.19
2019-04-20T00:42:10.722Z,53.43
2019-04-20T00:44:44.085Z,53.80
2019-04-20T00:47:30.711Z,53.72
2019-04-20T00:50:04.066Z,53.80
2019-04-20T00:52:32.834Z,54.11
2019-04-20T00:54:55.914Z,54.39
2019-04-20T00:57:37.965Z,54.34
2019-04-20T01:00:17.613Z,54.51
2019-04-20T01:02:45.435Z,54.54
2019-04-20T01:05:27.920Z,54.25
2019-04-20T01:08:00.171Z,54.24
2019-04-20T01:10:35.387Z,54.04
2019-04-20T01:13:11.044Z,54.12
2019-04-20T01:15:42.935Z,54.44
2019-04-20T01:18:10.777Z,54.70
2019-04-20T01:20:43.029Z,54.88
2019-04-20T01:23:19.084Z,54.93
2019-04-20T01:25:55.851Z,54.89
2019-04-20T01:28:37.557Z,55.14
2019-04-20T01:31:06.728Z,55.65
2019-04-20T01:33:40.057Z,55.97
2019-04-20T01:36:19.469Z,55.92
2019-04-20T01:38:47.325Z,55.95
2019-04-20T01:41:07.890Z,55.57
2019-04-20T01:43:39.579Z,55.71
2019-04-20T01:46:15.750Z,56.01
2019-04-20T01:48:44.734Z,57.10
2019-04-20T01:51:21.170Z,56.47
2019-04-20T01:54:06.331Z,56.34
2019-04-20T01:56:42.651Z,55.86
2019-04-20T01:59:23.076Z,55.20
2019-04-20T02:02:04.654Z,55.17
2019-04-20T02:04:40.432Z,55.50
2019-04-20T02:07:10.348Z,56.00
2019-04-20T02:09:49.578Z,55.57
2019-04-20T02:12:22.350Z,55.35
2019-04-20T02:14:54.046Z,55.42
2019-04-20T02:17:33.589Z,55.30
2019-04-20T02:20:15.590Z,56.24
2019-04-20T02:22:46.592Z,55.94
2019-04-20T02:25:03.521Z,55.95
2019-04-20T02:27:44.667Z,56.02
2019-04-20T02:30:40.355Z,55.57
2019-04-20T02:33:31.505Z,55.65
2019-04-20T02:36:11.087Z,55.75
2019-04-20T02:41:51.674Z,55.95
2019-04-20T02:44:16.072Z,56.13
2019-04-20T02:47:07.596Z,56.15
2019-04-20T02:49:29.966Z,56.10
2019-04-20T02:51:52.426Z,56.37
2019-04-20T02:54:21.950Z,56.88
2019-04-20T02:57:12.140Z,56.97
2019-04-20T03:01:51.741Z,56.69
2019-04-20T03:04:16.266Z,56.98
2019-04-20T03:06:55.002Z,57.16
2019-04-20T03:09:36.822Z,57.09
2019-04-20T03:12:08.220Z,56.46
2019-04-20T03:14:36.218Z,56.46
2019-04-20T03:17:15.268Z,56.55
2019-04-20T03:19:41.160Z,56.53
2019-04-20T03:22:21.396Z,55.98
2019-04-20T03:24:53.948Z,56.41
2019-04-20T03:27:25.128Z,55.55
2019-04-20T03:30:05.871Z,56.16
2019-04-20T03:35:20.042Z,56.27
2019-04-20T03:37:48.713Z,55.54
2019-04-20T03:40:19.125Z,55.05
2019-04-20T03:42:35.006Z,55.13
2019-04-20T03:45:12.483Z,56.50
2019-04-20T03:47:52.939Z,56.80
2019-04-20T03:50:38.538Z,56.89
2019-04-20T03:53:12.900Z,56.93
2019-04-20T03:55:51.629Z,56.86
2019-04-20T03:58:46.042Z,56.88
2019-04-20T04:01:55.564Z,56.77
2019-04-20T04:04:16.915Z,55.96
2019-04-20T04:06:37.345Z,55.95
2019-04-20T04:09:15.266Z,55.52
2019-04-20T04:11:58.523Z,55.56
2019-04-20T04:14:17.813Z,54.34
2019-04-20T04:16:54.342Z,54.54
2019-04-20T04:19:28.448Z,55.02
2019-04-20T04:22:08.656Z,53.40
2019-04-20T04:24:39.442Z,53.13
2019-04-20T04:27:22.534Z,53.28
2019-04-20T04:29:56.998Z,52.40
2019-04-20T04:32:47.972Z,52.13
2019-04-20T04:34:58.079Z,52.04
2019-04-20T04:37:33.824Z,51.91
2019-04-20T04:40:18.260Z,51.73
2019-04-20T04:42:42.671Z,51.38
2019-04-20T04:45:01.583Z,51.16
2019-04-20T04:47:28.458Z,51.28
2019-04-20T04:50:09.570Z,50.91
2019-04-20T04:52:47.812Z,50.70
2019-04-20T04:55:20.692Z,50.47
2019-04-20T04:57:41.526Z,50.38
2019-04-20T05:00:19.933Z,50.65
2019-04-20T05:02:53.898Z,50.64
2019-04-20T05:05:41.389Z,51.07
2019-04-20T05:08:07.241Z,50.12
2019-04-20T05:10:29.018Z,49.86
2019-04-20T05:13:00.880Z,48.65
2019-04-20T05:15:48.408Z,48.30
2019-04-20T05:18:34.436Z,47.84
2019-04-20T05:20:58.698Z,47.93
2019-04-20T05:23:28.074Z,46.22
2019-04-20T05:26:14.182Z,44.70
2019-04-20T05:28:37.146Z,45.55
2019-04-20T05:31:02.989Z,44.63
2019-04-20T05:33:57.092Z,45.20
2019-04-20T05:36:24.753Z,44.81
2019-04-20T05:39:02.238Z,44.43
2019-04-20T05:41:32.890Z,44.93
2019-04-20T05:44:05.067Z,43.79
2019-04-20T05:46:41.182Z,43.77
2019-04-20T05:49:18.764Z,42.94
2019-04-20T05:51:48.670Z,43.40
2019-04-20T05:54:19.365Z,42.68
2019-04-20T05:56:58.886Z,41.79
2019-04-20T05:59:27.082Z,40.24
2019-04-20T06:02:07.604Z,39.97
2019-04-20T06:04:46.381Z,40.29
2019-04-20T06:07:11.301Z,39.21
2019-04-20T06:09:52.422Z,39.73
2019-04-20T06:15:02.823Z,38.16
2019-04-20T06:17:52.753Z,38.09
2019-04-20T06:20:38.734Z,37.90
2019-04-20T06:23:34.621Z,36.10
2019-04-20T06:26:13.421Z,35.37
2019-04-20T06:28:30.037Z,36.48
2019-04-20T06:31:08.866Z,35.76
2019-04-20T06:34:30.402Z,36.02
2019-04-20T06:39:32.598Z,35.06
2019-04-20T06:44:36.968Z,35.57
2019-04-20T06:47:10.339Z,35.57
2019-04-20T06:50:00.430Z,35.39
2019-04-20T06:55:04.065Z,34.75
2019-04-20T06:57:40.564Z,34.12
2019-04-20T07:00:15.695Z,34.98
2019-04-20T07:02:59.041Z,34.60
2019-04-20T07:05:23.640Z,34.60
2019-04-20T07:08:00.423Z,35.09
2019-04-20T07:10:31.355Z,35.07
2019-04-20T07:12:56.553Z,33.65
2019-04-20T07:15:28.869Z,33.65
2019-04-20T07:18:09.236Z,34.02
2019-04-20T07:21:12.802Z,34.01
2019-04-20T07:23:48.178Z,34.29
2019-04-20T07:26:15.337Z,35.03
2019-04-20T07:28:41.337Z,34.67
2019-04-20T07:31:11.403Z,35.00
2019-04-20T07:33:51.198Z,33.67
2019-04-20T07:36:24.475Z,33.68
2019-04-20T07:38:55.266Z,34.51
2019-04-20T07:41:35.508Z,33.63
2019-04-20T07:44:03.342Z,34.11
2019-04-20T07:46:51.083Z,32.60
2019-04-20T07:49:07.626Z,32.33
2019-04-20T07:51:25.981Z,32.14
2019-04-20T07:54:17.667Z,31.67
2019-04-20T07:56:47.775Z,31.43
2019-04-20T07:59:13.934Z,32.05
2019-04-20T08:02:01.462Z,32.42
2019-04-20T08:04:30.044Z,32.36
2019-04-20T08:06:51.864Z,31.28
2019-04-20T08:09:26.153Z,30.12
2019-04-20T08:12:26.874Z,30.31
2019-04-20T08:14:56.876Z,30.65
2019-04-20T08:17:30.402Z,30.85
2019-04-20T08:19:59.559Z,31.23
2019-04-20T08:22:33.950Z,31.00
2019-04-20T08:24:59.297Z,31.10
2019-04-20T08:27:21.249Z,30.86
2019-04-20T08:30:20.649Z,30.92
2019-04-20T08:33:00.411Z,30.06
2019-04-20T08:35:46.367Z,30.40
2019-04-20T08:38:38.283Z,30.26
2019-04-20T08:40:47.866Z,30.45
2019-04-20T08:43:38.176Z,30.01
2019-04-20T08:45:52.430Z,28.63
2019-04-20T08:48:28.749Z,30.13
2019-04-20T08:50:57.778Z,29.37
2019-04-20T08:53:36.982Z,29.09
2019-04-20T08:56:02.280Z,29.15
2019-04-20T08:58:22.643Z,29.58
2019-04-20T09:00:58.693Z,28.24
2019-04-20T09:03:32.571Z,28.20
2019-04-20T09:06:08.602Z,28.62
2019-04-20T09:08:46.521Z,28.81
2019-04-20T09:11:24.261Z,28.75
2019-04-20T09:13:47.701Z,28.62
2019-04-20T09:16:19.952Z,28.39
2019-04-20T09:18:57.485Z,28.57
2019-04-20T09:21:34.183Z,27.79
2019-04-20T09:24:22.859Z,27.58
2019-04-20T09:26:47.986Z,27.79
2019-04-20T09:29:18.488Z,28.03
2019-04-20T09:31:52.087Z,27.37
2019-04-20T09:34:37.111Z,27.37
2019-04-20T09:37:21.457Z,27.26
2019-04-20T09:39:51.406Z,27.53
2019-04-20T09:42:09.496Z,27.49
2019-04-20T09:44:46.198Z,26.79
2019-04-20T09:47:14.345Z,27.11
2019-04-20T09:49:58.997Z,27.40
2019-04-20T09:52:31.268Z,27.32
2019-04-20T09:55:07.846Z,26.78
2019-04-20T09:57:46.723Z,27.15
2019-04-20T10:00:16.844Z,27.48
2019-04-20T10:02:36.333Z,28.11
2019-04-20T10:05:09.403Z,27.43
2019-04-20T10:07:42.232Z,27.24
2019-04-20T10:10:24.592Z,27.80
2019-04-20T10:12:48.539Z,27.97
2019-04-20T10:15:23.483Z,28.10
2019-04-20T10:17:53.950Z,28.43
2019-04-20T10:20:30.974Z,28.70
2019-04-20T10:22:58.799Z,28.81
2019-04-20T10:25:30.915Z,27.93
2019-04-20T10:28:03.371Z,28.44
2019-04-20T10:30:36.611Z,27.84
2019-04-20T10:33:09.880Z,27.81
2019-04-20T10:35:41.788Z,26.82
2019-04-20T10:38:15.709Z,27.97
2019-04-20T10:40:57.272Z,27.29
2019-04-20T10:43:21.965Z,27.56
2019-04-20T10:45:54.773Z,27.11
2019-04-20T10:48:26.944Z,27.37
2019-04-20T10:50:59.007Z,27.81
2019-04-20T10:53:32.193Z,27.21
2019-04-20T10:56:05.236Z,26.78
2019-04-20T10:58:37.789Z,27.09
2019-04-20T11:01:09.908Z,27.07
2019-04-20T11:03:42.765Z,26.40
2019-04-20T11:06:14.570Z,27.02
2019-04-20T11:08:46.684Z,26.91
2019-04-20T11:11:25.190Z,26.77
2019-04-20T11:13:51.479Z,25.90
2019-04-20T11:16:24.270Z,26.01
2019-04-20T11:18:56.001Z,25.95
2019-04-20T11:21:28.284Z,25.86
2019-04-20T11:24:00.389Z,26.28
2019-04-20T11:26:35.384Z,26.15
2019-04-20T11:29:06.393Z,26.11
2019-04-20T11:31:43.196Z,26.24
2019-04-20T11:34:14.923Z,26.55
2019-04-20T11:36:45.436Z,26.72
2019-04-20T11:39:17.121Z,26.32
2019-04-20T11:41:49.753Z,26.85
2019-04-20T11:44:21.252Z,27.28
2019-04-20T11:46:54.463Z,26.68
2019-04-20T11:49:26.094Z,25.32
2019-04-20T11:51:59.383Z,25.31
2019-04-20T11:54:32.383Z,24.69
2019-04-20T11:57:04.040Z,25.08
2019-04-20T11:59:37.120Z,25.04
2019-04-20T12:02:15.831Z,26.01
2019-04-20T12:05:05.858Z,26.10
2019-04-20T12:07:24.913Z,25.41
2019-04-20T12:10:05.673Z,25.64
2019-04-20T12:12:40.055Z,25.34
2019-04-20T12:15:06.601Z,25.69
2019-04-20T12:17:38.048Z,25.46
2019-04-20T12:20:10.944Z,25.51
2019-04-20T12:22:42.382Z,25.47
2019-04-20T12:25:14.227Z,25.55
2019-04-20T12:27:48.834Z,25.42
2019-04-20T12:30:19.630Z,25.60
2019-04-20T12:32:56.840Z,25.79
2019-04-20T12:35:26.499Z,25.32
2019-04-20T12:37:58.959Z,25.18
2019-04-20T12:40:30.617Z,24.77
2019-04-20T12:43:02.178Z,25.18
2019-04-20T12:45:35.669Z,26.15
2019-04-20T12:48:08.034Z,25.64
2019-04-20T12:50:39.703Z,25.46
2019-04-20T12:53:12.836Z,25.29
2019-04-20T12:55:44.663Z,25.45
2019-04-20T12:58:16.734Z,25.86
2019-04-20T13:00:52.150Z,25.97
2019-04-20T13:03:23.914Z,25.26
2019-04-20T13:05:56.107Z,25.65
2019-04-20T13:08:36.241Z,25.29
2019-04-20T13:11:10.945Z,26.09
2019-04-20T13:13:46.226Z,25.64
2019-04-20T13:16:28.497Z,25.12
2019-04-20T13:19:03.392Z,25.13
2019-04-20T13:21:35.190Z,25.14
2019-04-20T13:24:07.110Z,25.76
2019-04-20T13:26:38.808Z,25.55
2019-04-20T13:29:10.954Z,25.11
2019-04-20T13:31:43.860Z,25.36
2019-04-20T13:34:15.618Z,25.83
2019-04-20T13:36:48.420Z,25.63
2019-04-20T13:39:19.974Z,25.66
2019-04-20T13:42:02.407Z,25.67
2019-04-20T13:44:24.035Z,25.85
2019-04-20T13:46:56.728Z,25.65
2019-04-20T13:49:29.162Z,25.39
2019-04-20T13:52:02.299Z,25.33
2019-04-20T13:54:33.973Z,25.96
2019-04-20T13:57:10.176Z,25.46
2019-04-20T13:59:44.140Z,25.44
2019-04-20T14:02:30.916Z,25.70
2019-04-20T14:05:04.635Z,25.23
2019-04-20T14:07:37.844Z,25.47
2019-04-20T14:10:09.504Z,25.42
2019-04-20T14:12:52.384Z,25.42
2019-04-20T14:15:15.278Z,25.57
2019-04-20T14:17:47.013Z,25.75
2019-04-20T14:20:21.904Z,25.61
2019-04-20T14:22:54.660Z,25.52
2019-04-20T14:25:27.065Z,25.89
2019-04-20T14:27:58.663Z,25.66
2019-04-20T14:30:30.982Z,25.46
2019-04-20T14:33:03.066Z,25.62
2019-04-20T14:35:35.054Z,25.67
2019-04-20T14:38:07.897Z,25.69
2019-04-20T14:40:39.989Z,25.95
2019-04-20T14:43:13.052Z,26.02
2019-04-20T14:45:47.067Z,26.34
2019-04-20T14:48:18.758Z,26.34
2019-04-20T14:50:51.574Z,26.34
2019-04-20T14:53:25.408Z,26.43
2019-04-20T14:55:57.676Z,26.85
2019-04-20T14:58:49.202Z,26.89
2019-04-20T15:01:22.846Z,26.96
2019-04-20T15:03:59.823Z,26.85
2019-04-20T15:06:29.591Z,26.90
2019-04-20T15:09:01.385Z,27.13
2019-04-20T15:11:36.560Z,27.46
2019-04-20T15:14:09.018Z,26.46
2019-04-20T15:16:42.694Z,26.80
2019-04-20T15:19:17.818Z,26.96
2019-04-20T15:21:51.393Z,26.58
2019-04-20T15:24:23.776Z,26.89
2019-04-20T15:26:56.468Z,26.74
2019-04-20T15:29:30.424Z,27.08
2019-04-20T15:32:04.174Z,27.47
2019-04-20T15:34:36.979Z,26.86
2019-04-20T15:37:09.902Z,26.14
2019-04-20T15:39:43.211Z,26.32
2019-04-20T15:42:15.100Z,26.43
2019-04-20T15:44:47.255Z,26.17
2019-04-20T15:47:20.261Z,26.15
2019-04-20T15:49:51.928Z,26.50
2019-04-20T15:52:31.411Z,26.61
2019-04-20T15:55:01.875Z,26.42
2019-04-20T15:57:33.193Z,26.61
2019-04-20T16:00:06.682Z,26.71
2019-04-20T16:02:41.279Z,26.98
2019-04-20T16:05:28.254Z,27.64
2019-04-20T16:08:03.942Z,27.79
2019-04-20T16:10:35.001Z,28.56
2019-04-20T16:13:19.358Z,28.64
2019-04-20T16:15:40.220Z,28.61
2019-04-20T16:18:10.985Z,29.63
2019-04-20T16:20:52.951Z,29.61
2019-04-20T16:23:18.554Z,29.19
2019-04-20T16:26:02.096Z,29.67
2019-04-20T16:28:35.316Z,30.32
2019-04-20T16:31:10.066Z,30.75
2019-04-20T16:33:40.442Z,30.89
2019-04-20T16:36:12.371Z,31.42
2019-04-20T16:38:45.507Z,31.54
2019-04-20T16:41:18.343Z,32.17
2019-04-20T16:43:51.521Z,32.64
2019-04-20T16:46:25.605Z,33.18
2019-04-20T16:48:56.989Z,33.58
2019-04-20T16:51:29.210Z,33.85
2019-04-20T16:54:01.600Z,34.13
2019-04-20T16:56:33.438Z,34.89
2019-04-20T16:59:09.724Z,35.56
2019-04-20T17:01:40.612Z,35.89
2019-04-20T17:04:17.165Z,36.46
2019-04-20T17:07:05.961Z,36.74
2019-04-20T17:09:38.424Z,37.39
2019-04-20T17:12:10.448Z,38.28
2019-04-20T17:14:43.336Z,38.74
2019-04-20T17:17:15.779Z,39.16
2019-04-20T17:19:49.293Z,39.76
2019-04-20T17:22:21.479Z,39.71
2019-04-20T17:24:53.774Z,39.29
2019-04-20T17:27:44.739Z,39.41
2019-04-20T17:30:27.108Z,39.22
2019-04-20T17:33:00.564Z,38.60
2019-04-20T17:35:46.299Z,37.07
2019-04-20T17:38:08.842Z,36.59
2019-04-20T17:41:01.517Z,36.43
2019-04-20T17:43:24.905Z,36.39
2019-04-20T17:45:55.796Z,35.12
2019-04-20T17:48:33.287Z,34.40
2019-04-20T17:51:20.775Z,34.87
2019-04-20T17:53:55.750Z,34.93
2019-04-20T17:56:22.431Z,34.70
2019-04-20T17:58:54.558Z,34.91
2019-04-20T18:01:48.945Z,34.65
2019-04-20T18:04:46.548Z,34.44
2019-04-20T18:06:53.757Z,34.13
2019-04-20T18:09:38.656Z,34.35
2019-04-20T18:11:55.503Z,34.92
2019-04-20T18:14:38.655Z,35.13
2019-04-20T18:17:25.954Z,40.41
2019-04-20T18:19:47.173Z,35.19
2019-04-20T18:22:19.513Z,43.09
2019-04-20T18:25:16.352Z,41.21
2019-04-20T18:27:41.379Z,44.27
2019-04-20T18:30:15.534Z,46.59
2019-04-20T18:32:37.844Z,46.33
2019-04-20T18:35:18.212Z,45.46
2019-04-20T18:37:58.946Z,46.44
2019-04-20T18:40:32.516Z,46.16
2019-04-20T18:43:05.243Z,41.33
2019-04-20T18:45:46.532Z,42.24
2019-04-20T18:48:24.618Z,42.40
2019-04-20T18:50:42.427Z,42.36
2019-04-20T18:53:19.045Z,43.93
2019-04-20T18:55:55.144Z,44.55
2019-04-20T18:58:20.701Z,44.02
2019-04-20T19:00:54.198Z,46.39
2019-04-20T19:03:32.716Z,47.38
2019-04-20T19:06:00.162Z,48.51
2019-04-20T19:08:39.109Z,46.19
2019-04-20T19:11:09.749Z,47.92
2019-04-20T19:13:44.134Z,45.57
2019-04-20T19:16:27.516Z,45.17
2019-04-20T19:19:04.370Z,45.29
2019-04-20T19:21:26.988Z,47.53
2019-04-20T19:24:06.604Z,49.58
2019-04-20T19:26:32.211Z,50.00
2019-04-20T19:29:14.013Z,50.43
2019-04-20T19:31:50.839Z,48.96
2019-04-20T19:34:26.437Z,46.58
2019-04-20T19:36:59.113Z,46.43
2019-04-20T19:39:32.163Z,46.43
2019-04-20T19:42:06.778Z,46.60
2019-04-20T19:44:41.935Z,50.12
2019-04-20T19:47:19.453Z,53.17
2019-04-20T19:49:40.758Z,50.98
2019-04-20T19:52:31.001Z,49.59
2019-04-20T19:54:55.518Z,50.26
2019-04-20T19:57:31.624Z,51.35
2019-04-20T19:59:49.630Z,54.51
2019-04-20T20:02:18.704Z,55.21
2019-04-20T20:04:57.294Z,54.69
2019-04-20T20:07:32.205Z,55.42
2019-04-20T20:10:00.520Z,55.42
2019-04-20T20:12:31.575Z,54.45
2019-04-20T20:15:06.438Z,55.21
2019-04-20T20:18:00.339Z,55.17
2019-04-20T20:20:30.853Z,56.22
2019-04-20T20:22:49.770Z,56.02
2019-04-20T20:25:19.016Z,56.49
2019-04-20T20:27:57.434Z,55.79
2019-04-20T20:30:32.836Z,56.44
2019-04-20T20:33:13.936Z,56.80
2019-04-20T20:35:38.201Z,54.51
2019-04-20T20:38:16.649Z,56.30
2019-04-20T20:40:51.608Z,57.75
2019-04-20T20:43:20.656Z,57.18
2019-04-20T20:46:01.181Z,56.88
2019-04-20T20:48:33.396Z,54.77
2019-04-20T20:51:10.433Z,58.45
2019-04-20T20:53:41.394Z,54.52
2019-04-20T20:56:06.310Z,56.19
2019-04-20T20:58:43.846Z,57.34
2019-04-20T21:01:12.960Z,58.06
2019-04-20T21:03:45.195Z,57.09
2019-04-20T21:06:16.743Z,50.88
2019-04-20T21:08:51.463Z,50.52
2019-04-20T21:11:25.313Z,50.92
2019-04-20T21:13:54.575Z,51.89
2019-04-20T21:16:31.850Z,50.39
2019-04-20T21:19:17.182Z,50.05
2019-04-20T21:21:46.338Z,50.29
2019-04-20T21:24:13.049Z,49.98
2019-04-20T21:26:44.117Z,50.04
2019-04-20T21:29:19.169Z,50.71
2019-04-20T21:31:55.569Z,49.86
2019-04-20T21:34:22.321Z,53.41
2019-04-20T21:37:01.861Z,50.19
2019-04-20T21:39:39.175Z,51.47
2019-04-20T21:42:09.175Z,55.15
2019-04-20T21:44:40.600Z,56.02
2019-04-20T21:47:09.149Z,54.51
2019-04-20T21:49:51.534Z,55.54
2019-04-20T21:52:22.996Z,56.15
2019-04-20T21:54:47.908Z,57.46
2019-04-20T21:57:20.014Z,58.57
2019-04-20T21:59:54.265Z,59.33
2019-04-20T22:02:30.679Z,60.68
2019-04-20T22:04:58.781Z,61.31
2019-04-20T22:07:30.535Z,58.91
2019-04-20T22:10:02.527Z,58.76
2019-04-20T22:12:41.614Z,58.22
2019-04-20T22:15:17.886Z,55.55
2019-04-20T22:17:42.780Z,53.01
2019-04-20T22:20:23.241Z,52.27
2019-04-20T22:23:01.133Z,52.98
2019-04-20T22:25:40.723Z,52.45
2019-04-20T22:27:58.219Z,56.04
2019-04-20T22:30:28.177Z,58.34
2019-04-20T22:33:23.669Z,58.10
2019-04-20T22:35:58.860Z,56.45
2019-04-20T22:38:27.253Z,57.11
2019-04-20T22:41:06.616Z,58.18
2019-04-20T22:43:36.910Z,58.23
2019-04-20T22:46:05.909Z,58.83
2019-04-20T22:48:45.022Z,58.19
2019-04-20T22:51:26.389Z,57.76
2019-04-20T22:53:54.371Z,58.52
2019-04-20T22:56:34.161Z,59.93
2019-04-20T22:59:01.069Z,60.23
2019-04-20T23:01:35.036Z,57.20
2019-04-20T23:03:59.027Z,56.60
2019-04-20T23:06:35.656Z,58.48
2019-04-20T23:09:10.235Z,59.29
2019-04-20T23:11:40.083Z,58.89
2019-04-20T23:14:12.028Z,56.04
2019-04-20T23:16:49.270Z,55.38
2019-04-20T23:19:28.817Z,55.25
2019-04-20T23:21:57.230Z,55.62
2019-04-20T23:24:23.753Z,55.49
2019-04-20T23:26:55.441Z,59.38
2019-04-20T23:29:32.655Z,59.98
2019-04-20T23:32:04.907Z,60.91
2019-04-20T23:34:37.619Z,63.26
2019-04-20T23:37:16.098Z,64.50
2019-04-20T23:39:45.282Z,66.24
2019-04-20T23:42:23.983Z,63.48
2019-04-20T23:45:07.508Z,62.31
2019-04-20T23:47:46.463Z,66.70
2019-04-20T23:50:37.326Z,66.43
2019-04-20T23:53:10.399Z,66.33
2019-04-20T23:55:27.660Z,66.61
2019-04-20T23:58:06.436Z,65.08
